Latest Weather Observations for Sydney - Observatory Hill

IDN60901

Issued at 5:21 am EST Sunday 22 September 2019 (issued every 10 minutes, with the page automatically refreshed every 10 minutes)

About weather observations | Map of Sydney area stations | Latest observations for Sydney area | Other Formats
Station Details ID: 066062 Name: SYDNEY (OBSERVATORY HILL) Lat: -33.86 Lon: 151.21 Height: 39.0 m
Data from the previous 72 hours. | See also: Recent months at Sydney - Observatory Hill

* Apparent temperature (App Temp) for Sydney - Observatory Hill is calculated using temperature observations collected at Sydney - Observatory Hill and wind observations collected at Fort Denison, as wind observations are not currently provided for Sydney - Observatory Hill.

Date/Time
EST
Temp
°C
App
Temp
°C
Dew
Point
°C
Rel
Hum
%
Delta-T
°C
Wind Press
QNH
hPa
Press
MSL
hPa
Rain since
9am
mm
Dir  Spd
km/h
Gust
km/h
Spd
kts
Gust
kts
22/05:00am 19.5 19.7 12.0 62 4.2 NE 2 - 1 - 1018.3 1018.3 0.0
22/04:30am 19.2 19.9 13.4 69 3.3 ENE 2 - 1 - 1017.5 1017.5 0.0
22/04:00am 19.4 18.3 11.9 62 4.2 ESE 9 - 5 - 1017.0 1017.0 0.0
22/03:30am 19.4 19.6 11.7 61 4.3 E 2 - 1 - 1017.0 1017.0 0.0
22/03:00am 19.7 19.6 12.0 61 4.3 N 4 - 2 - 1016.8 1016.8 0.0
22/02:30am 19.7 18.1 12.9 65 3.8 WNW 13 - 7 - 1017.4 1017.4 0.0
22/02:00am 19.9 20.3 13.6 67 3.6 ENE 4 - 2 - 1017.4 1017.4 0.0
22/01:30am 19.3 19.5 14.1 72 3.0 WNW 6 - 3 - 1017.7 1017.7 0.0
22/01:00am 19.4 19.4 14.2 72 3.0 SE 7 - 4 - 1017.5 1017.5 0.0
22/12:30am 19.5 19.2 14.3 72 3.0 ESE 9 - 5 - 1017.6 1017.6 0.0
22/12:00am 19.4 20.3 15.1 76 2.5 NE 4 - 2 - 1017.8 1017.8 0.0
 
Date/Time
EST
Temp
°C
App
Temp
°C
Dew
Point
°C
Rel
Hum
%
Delta-T
°C
Wind Press
QNH
hPa
Press
MSL
hPa
Rain since
9am
mm
Dir  Spd
km/h
Gust
km/h
Spd
kts
Gust
kts
21/11:30pm 19.8 19.8 15.2 75 2.7 ESE 9 - 5 - 1017.8 1017.8 0.0
21/11:00pm 19.7 20.3 15.4 76 2.5 ESE 6 - 3 - 1017.7 1017.7 0.0
21/10:30pm 20.0 19.6 15.2 74 2.8 ESE 11 - 6 - 1017.7 1017.7 0.0
21/10:00pm 19.8 20.4 15.7 77 2.4 SE 7 - 4 - 1017.9 1017.9 0.0
21/09:30pm 19.5 19.9 15.2 76 2.5 SE 7 - 4 - 1018.2 1018.2 0.0
21/09:00pm 19.7 19.5 15.6 77 2.4 NE 11 - 6 - 1018.5 1018.5 0.0
21/08:30pm 19.5 17.5 15.4 77 2.4 NNE 20 - 11 - 1018.4 1018.4 0.0
21/08:00pm 19.7 17.8 15.1 75 2.7 ENE 19 - 10 - 1018.3 1018.3 0.0
21/07:30pm 20.5 19.3 15.1 71 3.2 E 15 - 8 - 1018.9 1018.9 0.0
21/07:00pm 20.3 18.8 15.3 73 3.0 WSW 17 - 9 - 1019.0 1019.0 0.0
21/06:30pm 20.3 16.7 15.3 73 3.0 NNE 28 - 15 - 1017.9 1017.9 0.0
21/06:00pm 20.6 16.5 14.9 70 3.3 NNE 30 - 16 - 1017.7 1017.7 0.0
21/05:30pm 20.6 17.6 14.9 70 3.4 NNE 24 - 13 - 1017.7 1017.7 0.0
21/05:00pm 20.9 17.9 14.8 68 3.6 NNE 24 - 13 - 1017.5 1017.5 0.0
21/04:30pm 21.3 18.0 14.9 67 3.8 NNE 26 - 14 - 1017.5 1017.5 0.0
21/04:00pm 21.3 18.6 14.7 66 3.9 NNE 22 - 12 - 1017.5 1017.5 0.0
21/03:30pm 21.4 18.3 14.6 65 4.0 NE 24 - 13 - 1017.4 1017.4 0.0
21/03:00pm 21.7 18.2 14.6 64 4.2 NE 26 - 14 - 1017.5 1017.5 0.0
21/02:30pm 22.6 19.7 15.0 62 4.5 NE 24 - 13 - 1017.6 1017.6 0.0
21/02:00pm 22.6 19.5 14.4 60 4.8 ENE 24 - 13 - 1017.9 1017.9 0.0
21/01:30pm 22.4 18.2 13.5 57 5.2 ENE 28 - 15 - 1018.0 1018.0 0.0
21/01:00pm 22.4 18.6 13.7 58 5.0 NE 26 - 14 - 1018.4 1018.4 0.0
21/12:30pm 21.8 19.1 13.4 59 4.8 NE 20 - 11 - 1018.9 1018.9 0.0
21/12:00pm 21.6 19.4 14.3 63 4.3 NE 19 - 10 - 1019.4 1019.4 0.0
21/11:30am 21.2 19.4 14.4 65 4.0 ENE 17 - 9 - 1020.2 1020.1 0.0
21/11:00am 20.1 18.9 14.0 68 3.5 ENE 13 - 7 - 1020.7 1020.6 0.0
21/10:30am 20.2 18.8 13.4 65 3.9 NE 13 - 7 - 1021.3 1021.2 0.0
21/10:00am 20.1 18.8 13.8 67 3.6 NNE 13 - 7 - 1021.7 1021.6 0.0
21/09:30am 19.4 17.7 13.6 69 3.3 NE 15 - 8 - 1022.0 1021.9 0.0
21/09:00am 19.0 16.6 13.8 72 3.0 NNE 19 - 10 - 1022.4 1022.3 0.0
21/08:30am 18.6 17.7 13.7 73 2.8 NNE 11 - 6 - 1022.5 1022.4 0.0
21/08:00am 18.2 16.6 13.9 76 2.4 NNE 15 - 8 - 1022.6 1022.5 0.0
21/07:30am 18.0 16.4 13.9 77 2.3 NNE 15 - 8 - 1022.3 1022.2 0.0
21/07:00am 17.7 16.1 13.8 78 2.2 NNE 15 - 8 - 1022.3 1022.2 0.0
21/06:30am 17.6 16.3 13.7 78 2.2 NNE 13 - 7 - 1021.9 1021.8 0.0
21/06:00am 17.5 15.8 13.6 78 2.2 NNE 15 - 8 - 1021.9 1021.8 0.0
21/05:30am 17.6 15.2 13.7 78 2.2 NNE 19 - 10 - 1021.7 1021.6 0.0
21/05:00am 17.7 15.3 13.8 78 2.2 NNE 19 - 10 - 1021.5 1021.4 0.0
21/04:30am 17.7 15.2 13.6 77 2.3 NNE 19 - 10 - 1021.5 1021.4 0.0
21/04:00am 18.0 15.9 13.5 75 2.5 NNE 17 - 9 - 1021.6 1021.5 0.0
21/03:30am 18.1 15.6 13.6 75 2.6 NNE 19 - 10 - 1021.7 1021.6 0.0
21/03:00am 18.1 16.0 13.6 75 2.5 NNE 17 - 9 - 1021.8 1021.7 0.0
21/02:30am 18.2 15.7 14.1 77 2.4 NNE 20 - 11 - 1022.0 1021.9 0.0
21/02:00am 18.2 15.8 14.5 79 2.1 NNE 20 - 11 - 1022.0 1021.9 0.0
21/01:30am 18.2 16.5 14.7 80 2.0 NE 17 - 9 - 1022.2 1022.1 0.0
21/01:00am 18.2 16.5 14.7 80 2.0 NE 17 - 9 - 1022.6 1022.5 0.0
21/12:30am 18.1 15.8 14.6 80 2.0 NE 20 - 11 - 1022.9 1022.8 0.0
21/12:00am 18.3 16.2 14.8 80 2.0 NE 19 - 10 - 1023.0 1022.9 0.0
 
Date/Time
EST
Temp
°C
App
Temp
°C
Dew
Point
°C
Rel
Hum
%
Delta-T
°C
Wind Press
QNH
hPa
Press
MSL
hPa
Rain since
9am
mm
Dir  Spd
km/h
Gust
km/h
Spd
kts
Gust
kts
20/11:30pm 18.5 16.4 14.6 78 2.3 NE 19 - 10 - 1023.6 1023.5 0.0
20/11:00pm 18.5 16.2 14.6 78 2.3 NNE 20 - 11 - 1023.6 1023.5 0.0
20/10:30pm 18.5 16.1 14.4 77 2.4 NE 20 - 11 - 1023.8 1023.7 0.0
20/10:00pm 18.5 15.0 14.4 77 2.4 NNE 26 - 14 - 1023.7 1023.6 0.0
20/09:30pm 18.6 14.7 14.5 77 2.4 NE 28 - 15 - 1023.9 1023.8 0.0
20/09:00pm 18.6 15.9 14.7 78 2.3 NE 22 - 12 - 1024.2 1024.1 0.0
20/08:30pm 18.7 15.7 14.8 78 2.3 NE 24 - 13 - 1024.1 1024.0 0.0
20/08:00pm 18.6 16.3 14.7 78 2.3 NE 20 - 11 - 1024.1 1024.0 0.0
20/07:30pm 18.5 16.4 14.6 78 2.3 NE 19 - 10 - 1023.9 1023.8 0.0
20/07:00pm 18.6 15.5 14.5 77 2.4 NE 24 - 13 - 1023.7 1023.6 0.0
20/06:30pm 18.7 16.5 14.8 78 2.3 ENE 20 - 11 - 1023.7 1023.6 0.0
20/06:00pm 18.8 16.4 14.5 76 2.5 ENE 20 - 11 - 1023.5 1023.4 0.0
20/05:30pm 19.0 16.9 14.7 76 2.5 NE 19 - 10 - 1023.3 1023.2 0.0
20/05:00pm 19.0 16.6 14.5 75 2.6 ENE 20 - 11 - 1023.2 1023.1 0.0
20/04:30pm 19.3 16.9 14.3 73 2.9 ENE 20 - 11 - 1023.2 1023.1 0.0
20/04:00pm 19.6 16.8 14.2 71 3.1 NE 22 - 12 - 1023.0 1022.9 0.0
20/03:30pm 19.8 16.6 14.2 70 3.2 NE 24 - 13 - 1022.9 1022.8 0.0
20/03:00pm 20.0 17.1 13.9 68 3.5 NE 22 - 12 - 1023.1 1023.0 0.0
20/02:30pm 20.2 17.0 14.3 69 3.4 NE 24 - 13 - 1023.5 1023.4 0.0
20/02:00pm 19.8 16.5 14.0 69 3.3 NE 24 - 13 - 1023.9 1023.8 0.0
20/01:30pm 20.1 15.6 13.8 67 3.6 NE 30 - 16 - 1024.2 1024.1 0.0
20/01:00pm 19.8 16.5 14.0 69 3.3 NE 24 - 13 - 1024.6 1024.5 0.0
20/12:30pm 19.8 16.5 14.0 69 3.3 NE 24 - 13 - 1025.0 1024.9 0.0
20/12:00pm 19.6 15.9 14.0 70 3.2 NE 26 - 14 - 1025.3 1025.2 0.0
20/11:30am 19.9 15.0 13.8 68 3.5 ENE 32 - 17 - 1025.6 1025.5 0.0
20/11:00am 20.1 16.1 14.0 68 3.5 NE 28 - 15 - 1026.2 1026.1 0.0
20/10:30am 19.9 16.3 14.3 70 3.3 NE 26 - 14 - 1026.7 1026.6 0.0
20/10:00am 19.8 16.9 14.0 69 3.3 NE 22 - 12 - 1027.0 1026.9 0.0
20/09:30am 19.4 16.7 13.6 69 3.3 NE 20 - 11 - 1027.1 1027.0 0.0
20/09:00am 19.7 17.2 13.6 68 3.5 NE 19 - 10 - 1027.2 1027.1 0.2
20/08:30am 19.2 17.2 13.8 71 3.1 NE 17 - 9 - 1027.3 1027.2 0.2
20/08:00am 19.4 18.3 14.2 72 3.0 NE 13 - 7 - 1027.3 1027.2 0.2
20/07:30am 18.6 17.1 14.1 75 2.6 NE 15 - 8 - 1027.2 1027.1 0.2
20/07:00am 17.9 16.4 14.2 79 2.1 NE 15 - 8 - 1027.0 1026.9 0.2
20/06:30am 17.5 17.7 14.2 81 1.9 NE 6 - 3 - 1026.9 1026.8 0.2
20/06:00am 17.0 18.0 14.3 84 1.5 NE 2 - 1 - 1026.7 1026.6 0.2
20/05:30am 16.7 17.6 14.0 84 1.5 NW 2 - 1 - 1026.6 1026.5 0.2
20/05:00am 16.7 17.2 14.0 84 1.5 N 4 - 2 - 1026.4 1026.3 0.2
20/04:30am 16.9 17.5 14.2 84 1.5 NE 4 - 2 - 1026.2 1026.1 0.2
20/04:00am 16.9 17.1 14.2 84 1.5 ENE 6 - 3 - 1026.0 1025.9 0.2
20/03:30am 16.9 17.8 14.0 83 1.7 NE 2 - 1 - 1026.0 1025.9 0.2
20/03:00am 17.1 17.2 14.0 82 1.8 NE 6 - 3 - 1026.1 1026.0 0.2
20/02:30am 17.3 17.8 14.0 81 1.9 NE 4 - 2 - 1026.2 1026.1 0.2
20/02:00am 17.3 17.4 14.0 81 1.9 N 6 - 3 - 1026.3 1026.2 0.2
20/01:30am 17.4 17.4 14.3 82 1.8 NNE 7 - 4 - 1026.6 1026.5 0.2
20/01:00am 17.5 17.5 14.2 81 1.9 NE 7 - 4 - 1026.7 1026.6 0.2
20/12:30am 17.7 17.4 14.4 81 1.9 NE 9 - 5 - 1026.8 1026.7 0.2
20/12:00am 17.8 17.5 14.3 80 2.0 NE 9 - 5 - 1026.9 1026.8 0.2
 
Date/Time
EST
Temp
°C
App
Temp
°C
Dew
Point
°C
Rel
Hum
%
Delta-T
°C
Wind Press
QNH
hPa
Press
MSL
hPa
Rain since
9am
mm
Dir  Spd
km/h
Gust
km/h
Spd
kts
Gust
kts
19/11:30pm 17.7 17.0 14.4 81 1.9 ENE 11 - 6 - 1026.7 1026.6 0.2
19/11:00pm 17.9 16.9 14.6 81 1.9 ENE 13 - 7 - 1026.7 1026.6 0.2
19/10:30pm 18.1 16.7 14.6 80 2.0 ENE 15 - 8 - 1026.7 1026.6 0.2
19/10:00pm 18.1 16.7 14.6 80 2.0 ENE 15 - 8 - 1026.8 1026.7 0.2
19/09:30pm 18.2 17.6 14.5 79 2.1 NE 11 - 6 - 1026.9 1026.8 0.2
19/09:00pm 18.1 16.2 14.2 78 2.2 ENE 17 - 9 - 1026.7 1026.6 0.2
19/08:30pm 18.0 16.8 14.1 78 2.2 ENE 13 - 7 - 1026.7 1026.6 0.2
19/08:00pm 17.9 16.0 14.2 79 2.1 ENE 17 - 9 - 1026.6 1026.5 0.2
19/07:30pm 18.2 16.3 14.3 78 2.2 ENE 17 - 9 - 1026.4 1026.3 0.2
19/07:00pm 18.3 16.0 14.0 76 2.5 ENE 19 - 10 - 1026.0 1025.9 0.2
19/06:30pm 18.6 16.1 14.1 75 2.6 ENE 20 - 11 - 1025.6 1025.5 0.2
19/06:00pm 18.7 16.4 14.0 74 2.7 ENE 19 - 10 - 1025.5 1025.4 0.2
19/05:30pm 18.9 16.0 14.0 73 2.8 ENE 22 - 12 - 1025.4 1025.3 0.2
19/05:00pm 19.1 15.5 14.1 73 2.9 ENE 26 - 14 - 1025.5 1025.4 0.2
19/04:30pm 19.5 16.3 14.3 72 3.0 ENE 24 - 13 - 1025.3 1025.2 0.2
19/04:00pm 19.7 16.7 14.7 73 2.9 E 24 - 13 - 1025.1 1025.0 0.2
19/03:30pm 19.8 17.0 14.2 70 3.2 E 22 - 12 - 1025.0 1024.9 0.2
19/03:00pm 20.6 17.9 14.5 68 3.5 E 22 - 12 - 1025.0 1024.9 0.2
19/02:30pm 20.1 17.6 14.2 69 3.4 E 20 - 11 - 1025.1 1025.0 0.2
19/02:00pm 20.0 18.0 13.9 68 3.5 E 17 - 9 - 1025.3 1025.2 0.2
19/01:30pm 19.7 17.3 13.9 69 3.3 E 19 - 10 - 1025.4 1025.3 0.2
19/01:00pm 19.7 17.8 14.1 70 3.2 E 17 - 9 - 1025.4 1025.3 0.2
19/12:30pm 18.6 17.3 13.7 73 2.8 E 13 - 7 - 1025.8 1025.7 0.2
19/12:00pm 18.6 16.9 13.5 72 2.9 E 15 - 8 - 1026.1 1026.0 0.2
19/11:30am 19.0 17.4 13.8 72 3.0 E 15 - 8 - 1026.5 1026.4 0.2
19/11:00am 19.2 18.0 14.0 72 3.0 E 13 - 7 - 1026.8 1026.7 0.2
19/10:30am 19.2 19.2 15.3 78 2.3 E 9 - 5 - 1027.0 1026.9 0.2
19/10:00am 18.0 17.9 14.9 82 1.8 ESE 9 - 5 - 1027.2 1027.1 0.2
19/09:30am 16.8 17.1 14.6 87 1.3 ESE 6 - 3 - 1027.3 1027.2 0.2
19/09:00am 16.3 17.3 14.3 88 1.1 SE 2 - 1 - 1027.3 1027.2 27.0
19/08:30am 16.3 16.4 14.5 89 1.0 ENE 7 - 4 - 1027.5 1027.4 26.8
19/08:00am 16.2 15.0 14.0 87 1.2 E 13 - 7 - 1027.8 1027.8 26.0
19/07:30am 15.9 17.1 13.7 87 1.2 CALM 0 - 0 - 1027.2 1027.1 25.8
19/07:00am 15.9 16.4 13.9 88 1.1 NNE 4 - 2 - 1027.0 1026.9 25.8
19/06:30am 15.8 16.2 13.6 87 1.2 ENE 4 - 2 - 1026.6 1026.5 25.6
19/06:00am 15.5 16.2 13.3 87 1.2 ENE 2 - 1 - 1026.4 1026.3 25.6
19/05:30am 15.4 15.3 13.4 88 1.1 E 6 - 3 - 1026.0 1025.9 25.6

Latest Capital City Observations: Canberra | Sydney | Melbourne | Brisbane | Adelaide | Perth | Hobart | Darwin

Other formats

Comma delimited format used in spreadsheet applications
http://www.bom.gov.au/fwo/IDN60901/IDN60901.94768.axf

JavaScript Object Notation format (JSON) in row-major order
http://www.bom.gov.au/fwo/IDN60901/IDN60901.94768.json

Data quality

Most of these data are generated automatically and are frequently updated. Quality checks on data are not normally performed. It is possible for incorrect values to appear. Refer to information at About Latest Weather Observations and please check the disclaimer before using these data.